createdAt,value
2023-01-15T00:01:43.741Z,44.50
2023-01-15T00:04:26.796Z,40.78
2023-01-15T00:27:43.855Z,39.88
2023-01-15T00:30:30.421Z,52.80
2023-01-15T00:53:48.822Z,27.35
2023-01-15T01:08:23.950Z,28.80
2023-01-15T01:19:17.656Z,29.98
2023-01-15T01:30:57.958Z,24.40
2023-01-15T01:36:41.771Z,29.17
2023-01-15T01:45:27.703Z,25.23
2023-01-15T01:56:43.731Z,27.70
2023-01-15T09:05:29.597Z,27.92
2023-01-15T09:07:57.320Z,28.08
2023-01-15T09:10:25.304Z,30.17
2023-01-15T09:12:52.696Z,26.45
2023-01-15T09:15:20.408Z,25.50
2023-01-15T09:17:47.803Z,28.38
2023-01-15T09:20:15.204Z,24.83
2023-01-15T09:22:43.340Z,25.67
2023-01-15T09:25:10.927Z,24.98
2023-01-15T09:27:38.284Z,25.50
2023-01-15T09:30:07.216Z,24.67
2023-01-15T09:32:34.624Z,23.62
2023-01-15T09:35:02.619Z,26.08
2023-01-15T09:37:30.278Z,22.33
2023-01-15T09:39:57.840Z,22.98
2023-01-15T09:42:28.180Z,23.30
2023-01-15T09:45:23.024Z,23.02
2023-01-15T09:48:12.081Z,20.15
2023-01-15T09:51:01.920Z,21.00
2023-01-15T09:53:42.488Z,19.05
2023-01-15T09:56:29.816Z,24.77
2023-01-15T09:58:59.737Z,21.98
2023-01-15T10:01:30.281Z,21.17
2023-01-15T10:04:47.349Z,20.73
2023-01-15T10:07:34.943Z,20.48
2023-01-15T10:10:10.848Z,21.35
2023-01-15T10:12:40.249Z,19.77
2023-01-15T10:15:14.138Z,20.20
2023-01-15T10:17:48.536Z,21.30
2023-01-15T10:20:53.737Z,20.98
2023-01-15T10:23:38.915Z,19.62
2023-01-15T10:26:20.484Z,17.10
2023-01-15T10:29:06.116Z,17.48
2023-01-15T10:31:49.149Z,15.50
2023-01-15T10:34:16.441Z,15.30
2023-01-15T10:36:52.054Z,16.12
2023-01-15T10:39:26.362Z,18.60
2023-01-15T10:42:17.758Z,17.42
2023-01-15T10:45:14.003Z,16.60
2023-01-15T10:47:42.777Z,16.73
2023-01-15T10:50:18.374Z,18.23
2023-01-15T10:52:50.955Z,17.00
2023-01-15T10:55:24.973Z,15.68
2023-01-15T10:58:15.780Z,20.60
2023-01-15T11:00:48.985Z,16.02
2023-01-15T11:03:21.127Z,15.88
2023-01-15T11:05:49.790Z,14.77
2023-01-15T11:12:01.560Z,14.65
2023-01-15T11:14:59.063Z,13.30
2023-01-15T11:18:21.470Z,13.02
2023-01-15T11:20:50.065Z,15.10
2023-01-15T11:23:21.197Z,14.23
2023-01-15T11:25:59.935Z,14.95
2023-01-15T11:28:36.247Z,15.57
2023-01-15T11:31:04.167Z,14.55
2023-01-15T11:33:32.289Z,15.38
2023-01-15T11:36:01.957Z,14.60
2023-01-15T11:38:47.375Z,14.87
2023-01-15T11:44:17.076Z,15.20
2023-01-15T11:47:05.986Z,14.80
2023-01-15T11:49:52.467Z,15.43
2023-01-15T11:52:23.353Z,11.60
2023-01-15T11:54:53.349Z,14.52
2023-01-15T11:57:28.756Z,17.15
2023-01-15T11:59:57.879Z,13.90
2023-01-15T12:02:50.269Z,15.60
2023-01-15T12:05:20.941Z,14.63
2023-01-15T12:07:50.130Z,14.27
2023-01-15T12:10:43.898Z,14.35
2023-01-15T12:13:19.517Z,16.55
2023-01-15T12:16:08.579Z,14.77
2023-01-15T12:18:54.373Z,16.62
2023-01-15T12:21:43.411Z,14.77
2023-01-15T12:24:55.598Z,15.98
2023-01-15T12:27:32.674Z,15.15
2023-01-15T12:30:24.037Z,18.67
2023-01-15T12:33:10.990Z,18.58
2023-01-15T12:35:41.696Z,15.80
2023-01-15T12:38:25.298Z,14.38
2023-01-15T12:41:14.106Z,16.30
2023-01-15T12:44:04.073Z,13.95
2023-01-15T12:46:33.975Z,12.30
2023-01-15T12:49:14.292Z,16.45
2023-01-15T12:52:02.470Z,14.15
2023-01-15T12:54:37.461Z,11.32
2023-01-15T13:00:03.892Z,14.93
2023-01-15T13:02:42.578Z,15.02
2023-01-15T13:05:18.722Z,18.02
2023-01-15T13:07:51.906Z,16.17
2023-01-15T13:10:23.215Z,13.32
2023-01-15T13:12:52.441Z,11.27
2023-01-15T13:15:24.385Z,14.77
2023-01-15T13:18:05.228Z,15.10
2023-01-15T13:20:51.494Z,16.00
2023-01-15T13:23:37.224Z,15.88
2023-01-15T13:26:23.418Z,14.13
2023-01-15T13:29:07.683Z,15.52
2023-01-15T13:31:51.020Z,18.30
2023-01-15T13:34:26.760Z,15.45
2023-01-15T13:36:59.487Z,18.40
2023-01-15T13:39:39.391Z,16.17
2023-01-15T13:42:31.893Z,14.82
2023-01-15T13:45:04.137Z,13.38
2023-01-15T13:47:35.995Z,14.23
2023-01-15T13:50:07.264Z,14.93
2023-01-15T13:52:36.437Z,12.93
2023-01-15T13:55:23.749Z,14.40
2023-01-15T13:57:52.027Z,13.40
2023-01-15T14:00:29.854Z,14.13
2023-01-15T14:03:00.745Z,13.52
2023-01-15T14:05:35.325Z,13.10
2023-01-15T14:08:16.165Z,14.85
2023-01-15T14:10:45.031Z,12.88
2023-01-15T14:13:23.554Z,13.77
2023-01-15T14:16:16.289Z,16.58
2023-01-15T14:18:57.967Z,14.40
2023-01-15T14:21:44.740Z,14.20
2023-01-15T14:24:31.170Z,13.02
2023-01-15T14:27:22.431Z,14.85
2023-01-15T14:29:59.592Z,14.38
2023-01-15T14:33:09.303Z,14.38
2023-01-15T14:35:43.819Z,16.75
2023-01-15T14:38:19.313Z,16.92
2023-01-15T14:41:02.311Z,14.95
2023-01-15T14:43:33.822Z,15.77
2023-01-15T14:46:34.380Z,16.23
2023-01-15T14:49:02.553Z,15.40
2023-01-15T14:51:33.743Z,19.87
2023-01-15T14:54:03.868Z,17.33
2023-01-15T14:56:36.228Z,16.40
2023-01-15T14:59:10.882Z,17.42
2023-01-15T15:01:48.528Z,19.98
2023-01-15T15:04:54.043Z,19.17
2023-01-15T15:07:25.620Z,19.85
2023-01-15T15:10:04.056Z,17.95
2023-01-15T15:12:55.921Z,22.05
2023-01-15T15:15:26.903Z,20.83
2023-01-15T15:18:01.317Z,19.87
2023-01-15T15:20:42.894Z,19.55
2023-01-15T15:23:17.648Z,20.52
2023-01-15T15:25:55.400Z,17.17
2023-01-15T15:28:24.324Z,18.92
2023-01-15T15:30:52.350Z,20.12
2023-01-15T15:33:22.311Z,19.05
2023-01-15T15:35:56.246Z,19.87
2023-01-15T15:38:26.275Z,19.20
2023-01-15T15:40:57.377Z,24.37
2023-01-15T15:44:22.118Z,18.08
2023-01-15T15:47:09.981Z,20.30
2023-01-15T15:49:41.516Z,22.65
2023-01-15T15:52:21.824Z,21.42
2023-01-15T15:55:15.143Z,21.30
2023-01-15T15:57:47.187Z,22.02
2023-01-15T16:00:26.609Z,26.35
2023-01-15T16:02:54.820Z,21.67
2023-01-15T16:05:29.389Z,22.92
2023-01-15T16:10:35.977Z,23.48
2023-01-15T16:13:05.977Z,21.83
2023-01-15T16:15:36.827Z,24.50
2023-01-15T16:18:06.172Z,22.80
2023-01-15T16:20:34.186Z,21.77
2023-01-15T16:23:05.492Z,23.15
2023-01-15T16:25:37.538Z,25.35
2023-01-15T16:28:06.515Z,24.60
2023-01-15T16:30:35.954Z,27.80
2023-01-15T16:33:08.512Z,22.80
2023-01-15T16:35:37.794Z,24.45
2023-01-15T16:38:07.982Z,23.40
2023-01-15T16:40:40.574Z,24.27
2023-01-15T16:43:10.741Z,24.77
2023-01-15T16:45:57.902Z,27.80
2023-01-15T16:48:39.542Z,24.37
2023-01-15T16:51:35.824Z,28.20
2023-01-15T16:54:07.636Z,25.17
2023-01-15T16:56:38.705Z,24.55
2023-01-15T16:59:45.422Z,26.60
2023-01-15T17:02:16.453Z,28.98
2023-01-15T17:04:46.229Z,31.20
2023-01-15T17:07:17.927Z,27.40
2023-01-15T17:09:48.905Z,26.20
2023-01-15T17:12:48.906Z,26.80
2023-01-15T17:15:18.397Z,28.67
2023-01-15T17:17:52.575Z,28.62
2023-01-15T17:20:27.560Z,29.23
2023-01-15T17:22:57.466Z,30.73
2023-01-15T17:25:32.413Z,28.40
2023-01-15T17:28:03.497Z,25.02
2023-01-15T17:30:34.816Z,29.77
2023-01-15T17:33:06.114Z,29.37
2023-01-15T17:35:40.655Z,28.80
2023-01-15T17:38:14.256Z,28.70
2023-01-15T17:40:43.020Z,28.38
2023-01-15T17:43:19.181Z,29.73
2023-01-15T17:45:48.182Z,28.00
2023-01-15T17:48:18.793Z,31.42
2023-01-15T17:50:47.854Z,30.65
2023-01-15T17:53:17.165Z,30.50
2023-01-15T17:56:04.441Z,32.92
2023-01-15T17:58:51.931Z,32.55
2023-01-15T18:01:41.017Z,32.55
2023-01-15T18:04:40.120Z,32.53
2023-01-15T18:07:10.221Z,35.03
2023-01-15T18:09:39.953Z,36.70
2023-01-15T18:12:09.389Z,37.50
2023-01-15T18:14:38.044Z,38.35
2023-01-15T18:17:07.151Z,33.80
2023-01-15T18:19:35.679Z,43.58
2023-01-15T18:22:06.993Z,35.38
2023-01-15T18:24:36.142Z,36.10
2023-01-15T18:27:04.773Z,34.83
2023-01-15T18:29:36.344Z,39.17
2023-01-15T18:32:05.872Z,33.55
2023-01-15T18:34:34.245Z,32.13
2023-01-15T18:37:04.681Z,33.38
2023-01-15T18:39:36.171Z,34.78
2023-01-15T18:42:06.741Z,33.60
2023-01-15T18:44:57.694Z,33.67
2023-01-15T18:47:27.673Z,37.00
2023-01-15T18:49:57.337Z,34.20
2023-01-15T18:52:44.231Z,33.65
2023-01-15T18:55:13.018Z,33.65
2023-01-15T18:57:41.703Z,36.35
2023-01-15T19:00:12.186Z,34.35
2023-01-15T19:02:41.046Z,37.25
2023-01-15T19:05:12.628Z,35.33
2023-01-15T19:07:45.924Z,36.33
2023-01-15T19:10:16.799Z,48.47
2023-01-15T19:12:45.929Z,45.30
2023-01-15T19:15:37.753Z,44.13
2023-01-15T19:18:30.993Z,38.33
2023-01-15T19:21:00.051Z,38.38
2023-01-15T19:23:28.860Z,44.95
2023-01-15T19:25:57.826Z,39.80
2023-01-15T19:28:26.949Z,38.55
2023-01-15T19:31:14.687Z,45.78
2023-01-15T19:33:43.356Z,50.38
2023-01-15T19:36:14.799Z,33.78
2023-01-15T19:38:46.023Z,33.60
2023-01-15T19:41:35.122Z,38.65
2023-01-15T19:44:22.361Z,40.20
2023-01-15T19:47:09.907Z,44.78
2023-01-15T19:49:57.163Z,38.13
2023-01-15T19:52:35.409Z,40.20
2023-01-15T19:55:16.078Z,37.67
2023-01-15T20:00:36.909Z,42.72
2023-01-15T20:03:10.360Z,41.83
2023-01-15T20:05:40.381Z,56.05
2023-01-15T20:08:14.825Z,48.65
2023-01-15T20:10:51.729Z,39.75
2023-01-15T20:13:41.271Z,37.75
2023-01-15T20:16:22.268Z,34.13
2023-01-15T20:18:52.499Z,33.97
2023-01-15T20:21:22.054Z,34.00
2023-01-15T20:23:54.567Z,32.85
2023-01-15T20:26:30.015Z,35.60
2023-01-15T20:29:00.036Z,33.40
2023-01-15T20:31:29.093Z,29.98
2023-01-15T20:34:01.980Z,29.40
2023-01-15T20:36:34.748Z,30.20
2023-01-15T20:39:03.761Z,30.20
2023-01-15T20:41:51.932Z,31.73
2023-01-15T20:44:39.894Z,32.63
2023-01-15T20:47:28.193Z,30.60
2023-01-15T20:49:57.068Z,34.40
2023-01-15T20:52:28.186Z,34.10
2023-01-15T20:54:58.363Z,31.20
2023-01-15T20:57:27.633Z,35.00
2023-01-15T20:59:57.657Z,30.05
2023-01-15T21:02:25.971Z,29.73
2023-01-15T21:04:54.968Z,29.00
2023-01-15T21:07:24.565Z,32.28
2023-01-15T21:09:53.602Z,31.08
2023-01-15T21:12:25.963Z,30.35
2023-01-15T21:14:54.124Z,29.12
2023-01-15T21:17:23.018Z,30.70
2023-01-15T21:19:50.882Z,37.13
2023-01-15T21:22:18.700Z,37.60
2023-01-15T21:24:49.138Z,34.97
2023-01-15T21:27:19.298Z,34.67
2023-01-15T21:29:48.677Z,31.60
2023-01-15T21:32:16.749Z,37.92
2023-01-15T21:34:46.960Z,36.45
2023-01-15T21:37:16.084Z,35.15
2023-01-15T21:39:43.741Z,36.95
2023-01-15T21:42:38.571Z,31.12
2023-01-15T21:45:09.157Z,35.05
2023-01-15T21:47:37.007Z,39.83
2023-01-15T21:50:05.678Z,35.92
2023-01-15T21:52:34.087Z,34.20
2023-01-15T21:55:01.495Z,34.15
2023-01-15T21:57:29.862Z,38.58
2023-01-15T21:59:57.539Z,34.92
2023-01-15T22:02:25.068Z,41.15
2023-01-15T22:04:52.733Z,38.95
2023-01-15T22:07:20.162Z,37.95
2023-01-15T22:09:47.579Z,37.75
2023-01-15T22:12:15.294Z,37.22
2023-01-15T22:14:42.913Z,36.45
2023-01-15T22:17:10.921Z,31.70
2023-01-15T22:19:38.750Z,34.55
2023-01-15T22:22:08.785Z,33.05
2023-01-15T22:24:38.009Z,31.33
2023-01-15T22:27:07.630Z,38.90
2023-01-15T22:29:40.059Z,32.72
2023-01-15T22:32:10.576Z,36.10
2023-01-15T22:34:38.027Z,36.10
2023-01-15T22:37:05.517Z,31.73
2023-01-15T22:39:33.433Z,35.30
2023-01-15T22:42:19.627Z,32.80
2023-01-15T22:44:48.917Z,42.20
2023-01-15T22:47:17.788Z,33.60
2023-01-15T22:49:45.469Z,33.20
2023-01-15T22:52:13.322Z,36.33
2023-01-15T22:54:44.669Z,36.15
2023-01-15T22:57:13.085Z,36.63
2023-01-15T22:59:40.772Z,30.80
2023-01-15T23:02:08.909Z,35.42
2023-01-15T23:04:38.166Z,31.35
2023-01-15T23:07:05.848Z,32.45
2023-01-15T23:09:33.247Z,29.37
2023-01-15T23:12:00.657Z,28.60
2023-01-15T23:14:28.398Z,27.80
2023-01-15T23:16:55.809Z,30.40
2023-01-15T23:19:24.828Z,27.02
2023-01-15T23:21:52.469Z,28.02
2023-01-15T23:24:19.871Z,26.20
2023-01-15T23:26:47.262Z,27.70
2023-01-15T23:29:14.992Z,28.33
2023-01-15T23:31:42.419Z,30.77
2023-01-15T23:34:10.618Z,25.55
2023-01-15T23:36:38.822Z,26.80
2023-01-15T23:39:06.219Z,29.37
2023-01-15T23:41:52.277Z,30.23
2023-01-15T23:44:39.727Z,27.50
2023-01-15T23:47:07.871Z,27.98
2023-01-15T23:49:35.662Z,29.95
2023-01-15T23:52:04.220Z,29.67
2023-01-15T23:54:31.772Z,28.35
2023-01-15T23:57:00.829Z,27.48
2023-01-15T23:59:28.772Z,28.02
